Terminal Aerodrome Forecast
Issued by NWS Chicago, IL

Home | Current Version | Previous Version | Graphics & Text | Print | Product List | Glossary On
Versions: 1 2 3 4 5 6 7 8 9 10 11 12 13 14 15 16 17 18 19 20 21 22 23 24 25 26 27 28 29 30 31 32 33
966
FTUS43 KLOT 290904 AAA
TAFRFD
TAF AMD
KRFD 290904Z 2909/3006 07006KT 3/4SM BR OVC002
      TEMPO 2910/2914 1/2SM FG
     FM291500 07013KT P6SM FEW005 BKN120
     FM291900 07015G23KT P6SM SCT015 BKN080
     FM300500 07013G20KT 4SM -SHRA SCT020 OVC040=

USA.gov is the U.S. government's official web portal to all federal, state and local government web resources and services.